sensor_id;sensor_type;location;lat;lon;timestamp;P1;durP1;ratioP1;P2;durP2;ratioP2
48777;SDS011;34578;0.000;0.000;2023-08-17T00:02:15;0.40;;;0.40;;
48777;SDS011;34578;0.000;0.000;2023-08-17T00:07:15;0.47;;;0.47;;
48777;SDS011;34578;0.000;0.000;2023-08-17T00:12:15;0.20;;;0.20;;
48777;SDS011;34578;0.000;0.000;2023-08-17T00:17:16;0.60;;;0.60;;
48777;SDS011;34578;0.000;0.000;2023-08-17T00:22:16;0.30;;;0.30;;
48777;SDS011;34578;0.000;0.000;2023-08-17T00:27:17;0.30;;;0.30;;
48777;SDS011;34578;0.000;0.000;2023-08-17T00:32:17;0.30;;;0.30;;
48777;SDS011;34578;0.000;0.000;2023-08-17T00:37:17;0.40;;;0.40;;
48777;SDS011;34578;0.000;0.000;2023-08-17T00:42:18;0.50;;;0.50;;
48777;SDS011;34578;0.000;0.000;2023-08-17T00:47:18;0.40;;;0.40;;
48777;SDS011;34578;0.000;0.000;2023-08-17T00:52:19;0.30;;;0.30;;
48777;SDS011;34578;0.000;0.000;2023-08-17T00:57:19;0.30;;;0.30;;
48777;SDS011;34578;0.000;0.000;2023-08-17T01:02:20;0.30;;;0.30;;
48777;SDS011;34578;0.000;0.000;2023-08-17T01:07:21;0.32;;;0.32;;
48777;SDS011;34578;0.000;0.000;2023-08-17T01:12:32;0.20;;;0.20;;
48777;SDS011;34578;0.000;0.000;2023-08-17T01:17:43;0.32;;;0.32;;
48777;SDS011;34578;0.000;0.000;2023-08-17T01:22:49;0.30;;;0.30;;
48777;SDS011;34578;0.000;0.000;2023-08-17T01:27:51;0.40;;;0.40;;
48777;SDS011;34578;0.000;0.000;2023-08-17T01:32:56;0.50;;;0.50;;
48777;SDS011;34578;0.000;0.000;2023-08-17T01:38:04;0.40;;;0.40;;
48777;SDS011;34578;0.000;0.000;2023-08-17T01:43:09;0.52;;;0.52;;
48777;SDS011;34578;0.000;0.000;2023-08-17T01:48:10;0.32;;;0.32;;
48777;SDS011;34578;0.000;0.000;2023-08-17T01:53:11;0.52;;;0.40;;
48777;SDS011;34578;0.000;0.000;2023-08-17T01:58:11;0.47;;;0.40;;
48777;SDS011;34578;0.000;0.000;2023-08-17T02:03:12;0.50;;;0.50;;
48777;SDS011;34578;0.000;0.000;2023-08-17T02:08:12;0.40;;;0.40;;
48777;SDS011;34578;0.000;0.000;2023-08-17T02:13:13;0.30;;;0.30;;
48777;SDS011;34578;0.000;0.000;2023-08-17T02:18:14;0.40;;;0.40;;
48777;SDS011;34578;0.000;0.000;2023-08-17T02:23:15;0.57;;;0.50;;
48777;SDS011;34578;0.000;0.000;2023-08-17T02:28:15;0.32;;;0.32;;
48777;SDS011;34578;0.000;0.000;2023-08-17T02:33:16;0.70;;;0.60;;
48777;SDS011;34578;0.000;0.000;2023-08-17T02:38:16;1.10;;;0.90;;
48777;SDS011;34578;0.000;0.000;2023-08-17T02:43:17;0.40;;;0.40;;
48777;SDS011;34578;0.000;0.000;2023-08-17T02:48:18;0.40;;;0.40;;
48777;SDS011;34578;0.000;0.000;2023-08-17T02:53:18;0.33;;;0.33;;
48777;SDS011;34578;0.000;0.000;2023-08-17T02:58:19;0.30;;;0.30;;
48777;SDS011;34578;0.000;0.000;2023-08-17T03:03:19;0.30;;;0.30;;
48777;SDS011;34578;0.000;0.000;2023-08-17T03:08:19;0.50;;;0.30;;
48777;SDS011;34578;0.000;0.000;2023-08-17T03:13:20;0.50;;;0.40;;
48777;SDS011;34578;0.000;0.000;2023-08-17T03:18:20;0.77;;;0.50;;
48777;SDS011;34578;0.000;0.000;2023-08-17T03:23:21;0.38;;;0.38;;
48777;SDS011;34578;0.000;0.000;2023-08-17T03:28:22;0.43;;;0.43;;
48777;SDS011;34578;0.000;0.000;2023-08-17T03:33:22;0.40;;;0.40;;
48777;SDS011;34578;0.000;0.000;2023-08-17T03:38:23;0.38;;;0.38;;
48777;SDS011;34578;0.000;0.000;2023-08-17T03:43:23;0.40;;;0.40;;
48777;SDS011;34578;0.000;0.000;2023-08-17T03:48:25;0.40;;;0.40;;
48777;SDS011;34578;0.000;0.000;2023-08-17T03:53:25;0.50;;;0.50;;
48777;SDS011;34578;0.000;0.000;2023-08-17T03:58:26;0.40;;;0.40;;
48777;SDS011;34578;0.000;0.000;2023-08-17T04:03:34;0.40;;;0.40;;
48777;SDS011;34578;0.000;0.000;2023-08-17T04:08:34;0.47;;;0.47;;
48777;SDS011;34578;0.000;0.000;2023-08-17T04:13:35;0.40;;;0.40;;
48777;SDS011;34578;0.000;0.000;2023-08-17T04:18:35;0.30;;;0.30;;
48777;SDS011;34578;0.000;0.000;2023-08-17T04:23:36;0.40;;;0.40;;
48777;SDS011;34578;0.000;0.000;2023-08-17T04:28:36;0.40;;;0.37;;
48777;SDS011;34578;0.000;0.000;2023-08-17T04:33:38;0.50;;;0.50;;
48777;SDS011;34578;0.000;0.000;2023-08-17T04:38:39;0.40;;;0.40;;
48777;SDS011;34578;0.000;0.000;2023-08-17T04:43:40;0.40;;;0.40;;
48777;SDS011;34578;0.000;0.000;2023-08-17T04:48:41;0.50;;;0.50;;
48777;SDS011;34578;0.000;0.000;2023-08-17T04:53:42;0.40;;;0.35;;
48777;SDS011;34578;0.000;0.000;2023-08-17T04:58:43;0.40;;;0.40;;
48777;SDS011;34578;0.000;0.000;2023-08-17T05:03:46;0.40;;;0.40;;
48777;SDS011;34578;0.000;0.000;2023-08-17T05:08:46;0.63;;;0.63;;
48777;SDS011;34578;0.000;0.000;2023-08-17T05:13:47;0.65;;;0.40;;
48777;SDS011;34578;0.000;0.000;2023-08-17T05:18:47;0.30;;;0.30;;
48777;SDS011;34578;0.000;0.000;2023-08-17T05:23:50;0.50;;;0.50;;
48777;SDS011;34578;0.000;0.000;2023-08-17T05:28:50;0.32;;;0.32;;
48777;SDS011;34578;0.000;0.000;2023-08-17T05:33:51;0.38;;;0.38;;
48777;SDS011;34578;0.000;0.000;2023-08-17T05:38:52;0.40;;;0.40;;
48777;SDS011;34578;0.000;0.000;2023-08-17T05:43:52;0.43;;;0.43;;
48777;SDS011;34578;0.000;0.000;2023-08-17T05:48:53;0.40;;;0.40;;
48777;SDS011;34578;0.000;0.000;2023-08-17T05:53:53;0.57;;;0.50;;
48777;SDS011;34578;0.000;0.000;2023-08-17T05:58:54;0.75;;;0.57;;
48777;SDS011;34578;0.000;0.000;2023-08-17T06:03:54;0.50;;;0.50;;
48777;SDS011;34578;0.000;0.000;2023-08-17T06:08:54;0.50;;;0.40;;
48777;SDS011;34578;0.000;0.000;2023-08-17T06:13:55;0.40;;;0.40;;
48777;SDS011;34578;0.000;0.000;2023-08-17T06:18:55;0.40;;;0.40;;
48777;SDS011;34578;0.000;0.000;2023-08-17T06:23:55;0.50;;;0.47;;
48777;SDS011;34578;0.000;0.000;2023-08-17T06:28:56;0.90;;;0.60;;
48777;SDS011;34578;0.000;0.000;2023-08-17T06:33:57;1.17;;;0.52;;
48777;SDS011;34578;0.000;0.000;2023-08-17T06:38:57;0.47;;;0.47;;
48777;SDS011;34578;0.000;0.000;2023-08-17T06:43:57;0.40;;;0.40;;
48777;SDS011;34578;0.000;0.000;2023-08-17T06:48:58;0.40;;;0.40;;
48777;SDS011;34578;0.000;0.000;2023-08-17T06:53:58;0.47;;;0.47;;
48777;SDS011;34578;0.000;0.000;2023-08-17T06:58:58;0.50;;;0.50;;
48777;SDS011;34578;0.000;0.000;2023-08-17T07:03:59;0.47;;;0.40;;
48777;SDS011;34578;0.000;0.000;2023-08-17T07:08:59;0.60;;;0.60;;
48777;SDS011;34578;0.000;0.000;2023-08-17T07:13:59;1.27;;;0.73;;
48777;SDS011;34578;0.000;0.000;2023-08-17T07:19:00;0.40;;;0.40;;
48777;SDS011;34578;0.000;0.000;2023-08-17T07:24:10;0.40;;;0.40;;
48777;SDS011;34578;0.000;0.000;2023-08-17T07:29:12;0.43;;;0.43;;
48777;SDS011;34578;0.000;0.000;2023-08-17T07:34:12;0.60;;;0.60;;
48777;SDS011;34578;0.000;0.000;2023-08-17T07:39:12;0.50;;;0.50;;
48777;SDS011;34578;0.000;0.000;2023-08-17T07:44:13;0.40;;;0.40;;
48777;SDS011;34578;0.000;0.000;2023-08-17T07:49:13;0.53;;;0.53;;
48777;SDS011;34578;0.000;0.000;2023-08-17T07:54:13;0.50;;;0.47;;
48777;SDS011;34578;0.000;0.000;2023-08-17T07:59:14;0.50;;;0.50;;
48777;SDS011;34578;0.000;0.000;2023-08-17T08:04:14;0.70;;;0.70;;
48777;SDS011;34578;0.000;0.000;2023-08-17T08:09:14;1.13;;;0.70;;
48777;SDS011;34578;0.000;0.000;2023-08-17T08:14:15;0.40;;;0.37;;
48777;SDS011;34578;0.000;0.000;2023-08-17T08:19:18;0.60;;;0.60;;
48777;SDS011;34578;0.000;0.000;2023-08-17T08:24:18;0.40;;;0.40;;
48777;SDS011;34578;0.000;0.000;2023-08-17T08:29:18;0.47;;;0.47;;
48777;SDS011;34578;0.000;0.000;2023-08-17T08:34:19;0.50;;;0.50;;
48777;SDS011;34578;0.000;0.000;2023-08-17T08:39:19;0.60;;;0.60;;
48777;SDS011;34578;0.000;0.000;2023-08-17T08:44:20;0.67;;;0.67;;
48777;SDS011;34578;0.000;0.000;2023-08-17T08:49:20;0.85;;;0.50;;
48777;SDS011;34578;0.000;0.000;2023-08-17T08:54:23;0.82;;;0.50;;
48777;SDS011;34578;0.000;0.000;2023-08-17T08:59:26;0.60;;;0.52;;
48777;SDS011;34578;0.000;0.000;2023-08-17T09:04:28;0.57;;;0.57;;
48777;SDS011;34578;0.000;0.000;2023-08-17T09:09:29;0.50;;;0.45;;
48777;SDS011;34578;0.000;0.000;2023-08-17T09:14:30;0.47;;;0.47;;
48777;SDS011;34578;0.000;0.000;2023-08-17T09:19:31;0.63;;;0.63;;
48777;SDS011;34578;0.000;0.000;2023-08-17T09:24:35;0.50;;;0.50;;
48777;SDS011;34578;0.000;0.000;2023-08-17T09:29:38;0.60;;;0.60;;
48777;SDS011;34578;0.000;0.000;2023-08-17T09:34:43;0.50;;;0.50;;
48777;SDS011;34578;0.000;0.000;2023-08-17T09:39:44;0.40;;;0.40;;
48777;SDS011;34578;0.000;0.000;2023-08-17T09:44:44;0.60;;;0.50;;
48777;SDS011;34578;0.000;0.000;2023-08-17T09:49:49;0.82;;;0.47;;
48777;SDS011;34578;0.000;0.000;2023-08-17T09:54:52;0.50;;;0.50;;
48777;SDS011;34578;0.000;0.000;2023-08-17T09:59:54;0.70;;;0.70;;
48777;SDS011;34578;0.000;0.000;2023-08-17T10:04:55;0.43;;;0.43;;
48777;SDS011;34578;0.000;0.000;2023-08-17T10:10:02;0.70;;;0.70;;
48777;SDS011;34578;0.000;0.000;2023-08-17T10:15:07;0.90;;;0.75;;
48777;SDS011;34578;0.000;0.000;2023-08-17T10:20:10;0.73;;;0.73;;
48777;SDS011;34578;0.000;0.000;2023-08-17T10:25:13;0.60;;;0.60;;
48777;SDS011;34578;0.000;0.000;2023-08-17T10:30:14;0.70;;;0.70;;
48777;SDS011;34578;0.000;0.000;2023-08-17T10:35:15;0.50;;;0.50;;
48777;SDS011;34578;0.000;0.000;2023-08-17T10:40:16;0.65;;;0.65;;
48777;SDS011;34578;0.000;0.000;2023-08-17T10:50:26;0.80;;;0.80;;
48777;SDS011;34578;0.000;0.000;2023-08-17T10:55:36;0.80;;;0.80;;
48777;SDS011;34578;0.000;0.000;2023-08-17T11:00:39;0.70;;;0.70;;
48777;SDS011;34578;0.000;0.000;2023-08-17T11:10:41;0.60;;;0.60;;
48777;SDS011;34578;0.000;0.000;2023-08-17T11:15:47;0.60;;;0.60;;
48777;SDS011;34578;0.000;0.000;2023-08-17T11:20:48;0.70;;;0.70;;
48777;SDS011;34578;0.000;0.000;2023-08-17T11:25:52;0.77;;;0.77;;
48777;SDS011;34578;0.000;0.000;2023-08-17T11:30:59;0.57;;;0.57;;
48777;SDS011;34578;0.000;0.000;2023-08-17T11:36:02;0.65;;;0.60;;
48777;SDS011;34578;0.000;0.000;2023-08-17T11:41:03;0.60;;;0.60;;
48777;SDS011;34578;0.000;0.000;2023-08-17T11:46:04;0.73;;;0.73;;
48777;SDS011;34578;0.000;0.000;2023-08-17T11:51:05;0.70;;;0.70;;
48777;SDS011;34578;0.000;0.000;2023-08-17T11:56:05;0.63;;;0.52;;
48777;SDS011;34578;0.000;0.000;2023-08-17T12:01:08;0.75;;;0.75;;
48777;SDS011;34578;0.000;0.000;2023-08-17T12:06:10;0.70;;;0.70;;
48777;SDS011;34578;0.000;0.000;2023-08-17T12:11:12;0.60;;;0.60;;
48777;SDS011;34578;0.000;0.000;2023-08-17T12:16:16;0.95;;;0.68;;
48777;SDS011;34578;0.000;0.000;2023-08-17T12:21:21;0.65;;;0.65;;
48777;SDS011;34578;0.000;0.000;2023-08-17T12:26:22;0.65;;;0.65;;
48777;SDS011;34578;0.000;0.000;2023-08-17T12:31:22;0.73;;;0.70;;
48777;SDS011;34578;0.000;0.000;2023-08-17T12:36:23;0.50;;;0.50;;
48777;SDS011;34578;0.000;0.000;2023-08-17T12:41:23;0.50;;;0.50;;
48777;SDS011;34578;0.000;0.000;2023-08-17T12:46:24;0.70;;;0.70;;
48777;SDS011;34578;0.000;0.000;2023-08-17T12:51:25;0.60;;;0.60;;
48777;SDS011;34578;0.000;0.000;2023-08-17T12:56:25;0.60;;;0.60;;
48777;SDS011;34578;0.000;0.000;2023-08-17T13:01:25;1.00;;;0.90;;
48777;SDS011;34578;0.000;0.000;2023-08-17T13:06:26;0.80;;;0.80;;
48777;SDS011;34578;0.000;0.000;2023-08-17T13:11:26;0.90;;;0.70;;
48777;SDS011;34578;0.000;0.000;2023-08-17T13:16:27;0.60;;;0.60;;
48777;SDS011;34578;0.000;0.000;2023-08-17T13:21:27;0.60;;;0.60;;
48777;SDS011;34578;0.000;0.000;2023-08-17T13:26:27;0.70;;;0.70;;
48777;SDS011;34578;0.000;0.000;2023-08-17T13:31:28;0.80;;;0.80;;
48777;SDS011;34578;0.000;0.000;2023-08-17T13:36:32;0.50;;;0.50;;
48777;SDS011;34578;0.000;0.000;2023-08-17T13:41:32;0.70;;;0.70;;
48777;SDS011;34578;0.000;0.000;2023-08-17T13:46:32;0.70;;;0.70;;
48777;SDS011;34578;0.000;0.000;2023-08-17T13:51:33;0.60;;;0.60;;
48777;SDS011;34578;0.000;0.000;2023-08-17T13:56:33;0.60;;;0.60;;
48777;SDS011;34578;0.000;0.000;2023-08-17T14:01:33;0.60;;;0.60;;
48777;SDS011;34578;0.000;0.000;2023-08-17T14:06:34;0.50;;;0.50;;
48777;SDS011;34578;0.000;0.000;2023-08-17T14:11:34;1.37;;;1.00;;
48777;SDS011;34578;0.000;0.000;2023-08-17T14:16:35;0.60;;;0.60;;
48777;SDS011;34578;0.000;0.000;2023-08-17T14:21:36;0.60;;;0.60;;
48777;SDS011;34578;0.000;0.000;2023-08-17T14:26:36;0.60;;;0.60;;
48777;SDS011;34578;0.000;0.000;2023-08-17T14:31:37;0.60;;;0.60;;
48777;SDS011;34578;0.000;0.000;2023-08-17T14:36:37;0.63;;;0.63;;
48777;SDS011;34578;0.000;0.000;2023-08-17T14:41:40;0.63;;;0.63;;
48777;SDS011;34578;0.000;0.000;2023-08-17T14:46:40;0.70;;;0.70;;
48777;SDS011;34578;0.000;0.000;2023-08-17T14:51:42;0.60;;;0.60;;
48777;SDS011;34578;0.000;0.000;2023-08-17T14:56:42;0.50;;;0.50;;
48777;SDS011;34578;0.000;0.000;2023-08-17T15:01:43;0.60;;;0.60;;
48777;SDS011;34578;0.000;0.000;2023-08-17T15:06:44;0.65;;;0.65;;
48777;SDS011;34578;0.000;0.000;2023-08-17T15:11:44;0.80;;;0.80;;
48777;SDS011;34578;0.000;0.000;2023-08-17T15:16:45;0.55;;;0.55;;
48777;SDS011;34578;0.000;0.000;2023-08-17T15:21:46;0.40;;;0.40;;
48777;SDS011;34578;0.000;0.000;2023-08-17T15:26:46;0.60;;;0.50;;
48777;SDS011;34578;0.000;0.000;2023-08-17T15:31:46;0.63;;;0.63;;
48777;SDS011;34578;0.000;0.000;2023-08-17T15:36:47;0.50;;;0.50;;
48777;SDS011;34578;0.000;0.000;2023-08-17T15:41:47;0.77;;;0.70;;
48777;SDS011;34578;0.000;0.000;2023-08-17T15:46:47;0.40;;;0.40;;
48777;SDS011;34578;0.000;0.000;2023-08-17T15:51:50;0.60;;;0.60;;
48777;SDS011;34578;0.000;0.000;2023-08-17T15:56:51;0.50;;;0.50;;
48777;SDS011;34578;0.000;0.000;2023-08-17T16:01:51;0.70;;;0.70;;
48777;SDS011;34578;0.000;0.000;2023-08-17T16:06:51;0.50;;;0.50;;
48777;SDS011;34578;0.000;0.000;2023-08-17T16:11:53;1.55;;;0.95;;
48777;SDS011;34578;0.000;0.000;2023-08-17T16:16:53;2.10;;;1.27;;
48777;SDS011;34578;0.000;0.000;2023-08-17T16:21:55;1.90;;;1.27;;
48777;SDS011;34578;0.000;0.000;2023-08-17T16:26:55;1.63;;;1.53;;
48777;SDS011;34578;0.000;0.000;2023-08-17T16:31:59;3.27;;;1.50;;
48777;SDS011;34578;0.000;0.000;2023-08-17T16:37:03;3.20;;;1.40;;
48777;SDS011;34578;0.000;0.000;2023-08-17T16:42:03;3.20;;;1.50;;
48777;SDS011;34578;0.000;0.000;2023-08-17T16:47:04;3.30;;;1.15;;
48777;SDS011;34578;0.000;0.000;2023-08-17T16:52:04;1.47;;;1.37;;
48777;SDS011;34578;0.000;0.000;2023-08-17T16:57:05;1.50;;;1.02;;
48777;SDS011;34578;0.000;0.000;2023-08-17T17:02:06;2.43;;;0.93;;
48777;SDS011;34578;0.000;0.000;2023-08-17T17:07:07;2.35;;;0.90;;
48777;SDS011;34578;0.000;0.000;2023-08-17T17:12:07;1.47;;;1.10;;
48777;SDS011;34578;0.000;0.000;2023-08-17T17:17:08;1.20;;;0.70;;
48777;SDS011;34578;0.000;0.000;2023-08-17T17:22:08;1.40;;;1.10;;
48777;SDS011;34578;0.000;0.000;2023-08-17T17:27:09;1.37;;;1.17;;
48777;SDS011;34578;0.000;0.000;2023-08-17T17:32:09;1.40;;;1.10;;
48777;SDS011;34578;0.000;0.000;2023-08-17T17:37:09;1.00;;;1.00;;
48777;SDS011;34578;0.000;0.000;2023-08-17T17:42:10;1.00;;;0.83;;
48777;SDS011;34578;0.000;0.000;2023-08-17T17:47:10;1.03;;;0.93;;
48777;SDS011;34578;0.000;0.000;2023-08-17T17:52:10;1.60;;;1.10;;
48777;SDS011;34578;0.000;0.000;2023-08-17T17:57:11;1.23;;;1.00;;
48777;SDS011;34578;0.000;0.000;2023-08-17T18:02:11;1.10;;;1.00;;
48777;SDS011;34578;0.000;0.000;2023-08-17T18:07:12;1.52;;;1.00;;
48777;SDS011;34578;0.000;0.000;2023-08-17T18:12:12;0.90;;;0.90;;
48777;SDS011;34578;0.000;0.000;2023-08-17T18:17:13;1.73;;;0.97;;
48777;SDS011;34578;0.000;0.000;2023-08-17T18:22:13;1.00;;;1.00;;
48777;SDS011;34578;0.000;0.000;2023-08-17T18:27:13;2.10;;;1.07;;
48777;SDS011;34578;0.000;0.000;2023-08-17T18:32:14;1.00;;;0.90;;
48777;SDS011;34578;0.000;0.000;2023-08-17T18:37:14;0.77;;;0.77;;
48777;SDS011;34578;0.000;0.000;2023-08-17T18:42:14;1.07;;;0.80;;
48777;SDS011;34578;0.000;0.000;2023-08-17T18:47:15;0.80;;;0.80;;
48777;SDS011;34578;0.000;0.000;2023-08-17T18:52:15;1.05;;;0.95;;
48777;SDS011;34578;0.000;0.000;2023-08-17T18:57:15;1.07;;;0.80;;
48777;SDS011;34578;0.000;0.000;2023-08-17T19:02:16;1.10;;;0.93;;
48777;SDS011;34578;0.000;0.000;2023-08-17T19:07:16;0.80;;;0.80;;
48777;SDS011;34578;0.000;0.000;2023-08-17T19:12:17;1.05;;;0.95;;
48777;SDS011;34578;0.000;0.000;2023-08-17T19:17:18;0.80;;;0.75;;
48777;SDS011;34578;0.000;0.000;2023-08-17T19:22:18;0.95;;;0.95;;
48777;SDS011;34578;0.000;0.000;2023-08-17T19:27:19;1.10;;;1.00;;
48777;SDS011;34578;0.000;0.000;2023-08-17T19:32:19;1.80;;;1.03;;
48777;SDS011;34578;0.000;0.000;2023-08-17T19:37:22;0.80;;;0.80;;
48777;SDS011;34578;0.000;0.000;2023-08-17T19:42:22;0.90;;;0.70;;
48777;SDS011;34578;0.000;0.000;2023-08-17T19:47:23;1.10;;;1.00;;
48777;SDS011;34578;0.000;0.000;2023-08-17T19:52:23;0.87;;;0.73;;
48777;SDS011;34578;0.000;0.000;2023-08-17T19:57:24;0.63;;;0.63;;
48777;SDS011;34578;0.000;0.000;2023-08-17T20:02:25;0.73;;;0.73;;
48777;SDS011;34578;0.000;0.000;2023-08-17T20:07:25;1.10;;;1.00;;
48777;SDS011;34578;0.000;0.000;2023-08-17T20:12:26;0.77;;;0.70;;
48777;SDS011;34578;0.000;0.000;2023-08-17T20:17:28;0.90;;;0.80;;
48777;SDS011;34578;0.000;0.000;2023-08-17T20:22:30;0.80;;;0.80;;
48777;SDS011;34578;0.000;0.000;2023-08-17T20:27:30;0.90;;;0.83;;
48777;SDS011;34578;0.000;0.000;2023-08-17T20:32:31;0.93;;;0.83;;
48777;SDS011;34578;0.000;0.000;2023-08-17T20:37:31;0.90;;;0.60;;
48777;SDS011;34578;0.000;0.000;2023-08-17T20:42:31;1.10;;;0.70;;
48777;SDS011;34578;0.000;0.000;2023-08-17T20:47:31;0.77;;;0.60;;
48777;SDS011;34578;0.000;0.000;2023-08-17T20:52:34;0.68;;;0.60;;
48777;SDS011;34578;0.000;0.000;2023-08-17T20:57:34;0.83;;;0.80;;
48777;SDS011;34578;0.000;0.000;2023-08-17T21:02:35;0.82;;;0.82;;
48777;SDS011;34578;0.000;0.000;2023-08-17T21:07:35;0.70;;;0.70;;
48777;SDS011;34578;0.000;0.000;2023-08-17T21:12:36;0.80;;;0.80;;
48777;SDS011;34578;0.000;0.000;2023-08-17T21:17:36;0.80;;;0.80;;
48777;SDS011;34578;0.000;0.000;2023-08-17T21:22:37;1.10;;;0.87;;
48777;SDS011;34578;0.000;0.000;2023-08-17T21:27:39;0.68;;;0.68;;
48777;SDS011;34578;0.000;0.000;2023-08-17T21:32:39;1.23;;;0.90;;
48777;SDS011;34578;0.000;0.000;2023-08-17T21:37:40;0.82;;;0.82;;
48777;SDS011;34578;0.000;0.000;2023-08-17T21:42:42;0.80;;;0.73;;
48777;SDS011;34578;0.000;0.000;2023-08-17T21:47:43;1.00;;;0.67;;
48777;SDS011;34578;0.000;0.000;2023-08-17T21:52:43;0.70;;;0.70;;
48777;SDS011;34578;0.000;0.000;2023-08-17T21:57:44;1.37;;;0.90;;
48777;SDS011;34578;0.000;0.000;2023-08-17T22:02:44;1.27;;;0.80;;
48777;SDS011;34578;0.000;0.000;2023-08-17T22:07:44;0.60;;;0.60;;
48777;SDS011;34578;0.000;0.000;2023-08-17T22:12:45;0.80;;;0.70;;
48777;SDS011;34578;0.000;0.000;2023-08-17T22:17:45;1.00;;;0.80;;
48777;SDS011;34578;0.000;0.000;2023-08-17T22:22:45;1.13;;;0.70;;
48777;SDS011;34578;0.000;0.000;2023-08-17T22:27:46;0.60;;;0.60;;
48777;SDS011;34578;0.000;0.000;2023-08-17T22:32:47;1.17;;;0.57;;
48777;SDS011;34578;0.000;0.000;2023-08-17T22:37:48;1.00;;;0.50;;
48777;SDS011;34578;0.000;0.000;2023-08-17T22:42:48;0.70;;;0.70;;
48777;SDS011;34578;0.000;0.000;2023-08-17T22:47:51;0.52;;;0.52;;
48777;SDS011;34578;0.000;0.000;2023-08-17T22:52:51;0.80;;;0.60;;
48777;SDS011;34578;0.000;0.000;2023-08-17T22:57:53;0.77;;;0.68;;
48777;SDS011;34578;0.000;0.000;2023-08-17T23:02:54;0.63;;;0.63;;
48777;SDS011;34578;0.000;0.000;2023-08-17T23:07:54;0.70;;;0.70;;
48777;SDS011;34578;0.000;0.000;2023-08-17T23:12:55;0.70;;;0.70;;
48777;SDS011;34578;0.000;0.000;2023-08-17T23:17:55;0.50;;;0.50;;
48777;SDS011;34578;0.000;0.000;2023-08-17T23:22:55;0.67;;;0.50;;
48777;SDS011;34578;0.000;0.000;2023-08-17T23:27:57;0.80;;;0.77;;
48777;SDS011;34578;0.000;0.000;2023-08-17T23:32:57;0.60;;;0.57;;
48777;SDS011;34578;0.000;0.000;2023-08-17T23:37:57;0.50;;;0.50;;
48777;SDS011;34578;0.000;0.000;2023-08-17T23:43:00;0.50;;;0.50;;
48777;SDS011;34578;0.000;0.000;2023-08-17T23:48:01;0.50;;;0.50;;
48777;SDS011;34578;0.000;0.000;2023-08-17T23:53:02;0.75;;;0.65;;
48777;SDS011;34578;0.000;0.000;2023-08-17T23:58:03;0.63;;;0.63;;
